createdAt,value
2019-04-20T00:02:14.369Z,45.20
2019-04-20T00:06:17.563Z,45.30
2019-04-20T00:10:24.693Z,45.40
2019-04-20T00:14:33.866Z,45.50
2019-04-20T00:18:42.967Z,45.60
2019-04-20T00:22:59.760Z,45.70
2019-04-20T00:27:28.474Z,45.80
2019-04-20T00:31:29.751Z,45.70
2019-04-20T00:35:20.965Z,46.00
2019-04-20T00:39:27.889Z,46.60
2019-04-20T00:43:37.312Z,46.20
2019-04-20T00:47:50.102Z,46.30
2019-04-20T00:52:18.746Z,46.30
2019-04-20T00:55:57.046Z,46.40
2019-04-20T01:00:22.897Z,46.50
2019-04-20T01:04:34.590Z,46.60
2019-04-20T01:08:27.461Z,46.70
2019-04-20T01:12:36.815Z,46.80
2019-04-20T01:16:47.059Z,47.10
2019-04-20T01:20:47.882Z,47.00
2019-04-20T01:24:54.960Z,47.40
2019-04-20T01:29:15.889Z,47.20
2019-04-20T01:33:24.342Z,47.60
2019-04-20T01:37:31.716Z,47.60
2019-04-20T01:41:24.349Z,47.60
2019-04-20T01:45:36.260Z,48.30
2019-04-20T01:49:41.843Z,48.20
2019-04-20T01:54:06.710Z,48.30
2019-04-20T01:58:36.444Z,48.10
2019-04-20T02:02:35.526Z,48.40
2019-04-20T02:06:48.116Z,48.50
2019-04-20T02:10:53.717Z,48.60
2019-04-20T02:15:00.724Z,48.60
2019-04-20T02:19:19.597Z,48.70
2019-04-20T02:23:21.193Z,48.80
2019-04-20T02:27:20.572Z,48.90
2019-04-20T02:36:21.068Z,49.00
2019-04-20T02:40:32.857Z,49.20
2019-04-20T02:44:30.581Z,49.20
2019-04-20T02:48:42.701Z,49.30
2019-04-20T02:53:05.486Z,49.30
2019-04-20T02:56:57.562Z,49.30
2019-04-20T03:00:52.388Z,49.50
2019-04-20T03:04:45.277Z,49.50
2019-04-20T03:09:09.101Z,50.00
2019-04-20T03:13:17.117Z,49.50
2019-04-20T03:17:25.650Z,49.60
2019-04-20T03:21:27.284Z,49.60
2019-04-20T03:25:55.274Z,49.60
2019-04-20T03:30:22.763Z,49.80
2019-04-20T03:34:47.457Z,49.80
2019-04-20T03:38:30.197Z,49.70
2019-04-20T03:42:14.117Z,49.90
2019-04-20T03:46:30.088Z,49.90
2019-04-20T03:50:46.777Z,50.10
2019-04-20T03:55:15.065Z,50.10
2019-04-20T03:59:34.644Z,50.10
2019-04-20T04:04:09.483Z,50.30
2019-04-20T04:08:06.180Z,50.30
2019-04-20T04:12:44.550Z,50.30
2019-04-20T04:16:53.797Z,50.50
2019-04-20T04:21:01.922Z,50.50
2019-04-20T04:25:18.339Z,50.60
2019-04-20T04:29:34.631Z,50.70
2019-04-20T04:33:53.161Z,50.80
2019-04-20T04:37:51.403Z,50.80
2019-04-20T04:42:02.146Z,50.80
2019-04-20T04:45:40.565Z,50.90
2019-04-20T04:49:55.372Z,51.20
2019-04-20T04:54:01.789Z,51.10
2019-04-20T04:58:02.404Z,51.30
2019-04-20T05:02:08.030Z,51.40
2019-04-20T05:06:35.657Z,51.40
2019-04-20T05:10:26.977Z,51.30
2019-04-20T05:14:45.325Z,51.50
2019-04-20T05:19:07.723Z,51.60
2019-04-20T05:23:20.821Z,51.80
2019-04-20T05:27:44.174Z,51.80
2019-04-20T05:31:30.903Z,51.80
2019-04-20T05:35:58.929Z,51.80
2019-04-20T05:40:07.703Z,51.80
2019-04-20T05:44:25.975Z,51.80
2019-04-20T05:48:38.160Z,51.80
2019-04-20T05:52:50.972Z,51.50
2019-04-20T05:56:53.877Z,50.10
2019-04-20T06:01:06.767Z,48.50
2019-04-20T06:05:08.489Z,46.80
2019-04-20T06:09:16.573Z,45.80
2019-04-20T06:13:30.003Z,43.10
2019-04-20T06:18:13.823Z,44.30
2019-04-20T06:23:00.008Z,44.60
2019-04-20T06:27:00.882Z,43.50
2019-04-20T06:30:56.921Z,40.40
2019-04-20T06:35:18.951Z,40.40
2019-04-20T06:39:20.411Z,43.50
2019-04-20T06:43:25.479Z,41.60
2019-04-20T06:47:41.873Z,40.60
2019-04-20T06:51:47.656Z,41.80
2019-04-20T06:56:04.326Z,41.80
2019-04-20T07:00:07.363Z,40.80
2019-04-20T07:04:33.313Z,42.80
2019-04-20T07:08:33.371Z,41.80
2019-04-20T07:12:27.262Z,40.60
2019-04-20T07:17:00.137Z,39.30
2019-04-20T07:21:13.853Z,40.10
2019-04-20T07:25:19.188Z,44.10
2019-04-20T07:29:40.742Z,39.80
2019-04-20T07:33:46.815Z,41.00
2019-04-20T07:42:00.392Z,39.80
2019-04-20T07:46:10.477Z,38.40
2019-04-20T07:50:07.696Z,37.40
2019-04-20T07:54:33.173Z,36.30
2019-04-20T07:58:23.053Z,42.10
2019-04-20T08:02:58.715Z,37.70
2019-04-20T08:06:48.769Z,38.50
2019-04-20T08:11:10.311Z,38.60
2019-04-20T08:15:30.065Z,37.10
2019-04-20T08:19:23.377Z,37.00
2019-04-20T08:23:35.959Z,35.40
2019-04-20T08:27:27.566Z,40.70
2019-04-20T08:31:56.239Z,40.70
2019-04-20T08:36:12.255Z,39.00
2019-04-20T08:40:11.967Z,35.70
2019-04-20T08:44:42.219Z,38.90
2019-04-20T08:48:31.366Z,34.80
2019-04-20T08:53:01.267Z,32.10
2019-04-20T08:56:31.799Z,31.20
2019-04-20T09:00:33.155Z,29.90
2019-04-20T09:04:45.157Z,30.40
2019-04-20T09:08:55.505Z,35.80
2019-04-20T09:13:03.978Z,34.20
2019-04-20T09:17:32.587Z,38.10
2019-04-20T09:21:43.629Z,28.00
2019-04-20T09:26:00.385Z,29.30
2019-04-20T09:30:07.764Z,36.40
2019-04-20T09:34:26.137Z,32.30
2019-04-20T09:38:34.810Z,34.40
2019-04-20T09:42:32.618Z,36.70
2019-04-20T09:46:44.249Z,24.60
2019-04-20T09:51:02.373Z,27.40
2019-04-20T09:55:07.853Z,34.20
2019-04-20T09:59:25.214Z,27.50
2019-04-20T10:03:10.743Z,28.40
2019-04-20T10:07:21.373Z,33.40
2019-04-20T10:11:23.713Z,34.30
2019-04-20T10:15:30.995Z,36.30
2019-04-20T10:19:39.433Z,25.80
2019-04-20T10:23:44.905Z,30.90
2019-04-20T10:27:51.542Z,25.20
2019-04-20T10:31:59.246Z,24.80
2019-04-20T10:36:05.714Z,22.40
2019-04-20T10:40:11.609Z,24.20
2019-04-20T10:44:17.276Z,35.30
2019-04-20T10:48:23.519Z,27.20
2019-04-20T10:52:29.777Z,37.40
2019-04-20T10:56:35.381Z,32.00
2019-04-20T11:00:43.844Z,34.40
2019-04-20T11:04:50.635Z,34.50
2019-04-20T11:08:56.396Z,27.10
2019-04-20T11:13:03.196Z,35.70
2019-04-20T11:17:09.641Z,24.60
2019-04-20T11:21:15.451Z,34.80
2019-04-20T11:25:22.103Z,20.30
2019-04-20T11:29:28.455Z,19.60
2019-04-20T11:33:34.301Z,35.00
2019-04-20T11:37:39.902Z,34.90
2019-04-20T11:41:45.774Z,30.20
2019-04-20T11:45:51.761Z,35.10
2019-04-20T11:49:57.618Z,31.70
2019-04-20T11:54:04.230Z,30.00
2019-04-20T11:58:10.119Z,20.80
2019-04-20T12:02:34.949Z,26.30
2019-04-20T12:06:36.910Z,18.80
2019-04-20T12:10:43.772Z,20.40
2019-04-20T12:14:50.563Z,29.30
2019-04-20T12:18:56.781Z,33.80
2019-04-20T12:23:02.593Z,34.80
2019-04-20T12:27:08.865Z,30.90
2019-04-20T12:31:29.482Z,18.90
2019-04-20T12:35:36.114Z,34.80
2019-04-20T12:39:53.294Z,33.90
2019-04-20T12:44:01.705Z,26.40
2019-04-20T12:48:08.172Z,29.90
2019-04-20T12:52:14.446Z,33.70
2019-04-20T12:56:22.318Z,31.40
2019-04-20T13:00:43.604Z,26.80
2019-04-20T13:04:51.179Z,34.90
2019-04-20T13:09:00.300Z,34.00
2019-04-20T13:13:36.548Z,28.90
2019-04-20T13:17:42.340Z,17.50
2019-04-20T13:21:49.203Z,23.00
2019-04-20T13:25:55.019Z,26.50
2019-04-20T13:30:00.888Z,35.10
2019-04-20T13:34:07.584Z,33.00
2019-04-20T13:38:14.183Z,32.90
2019-04-20T13:42:24.801Z,33.00
2019-04-20T13:46:27.257Z,21.90
2019-04-20T13:50:33.888Z,32.60
2019-04-20T13:54:40.055Z,31.20
2019-04-20T13:59:01.835Z,31.60
2019-04-20T14:03:09.014Z,30.80
2019-04-20T14:07:17.025Z,23.70
2019-04-20T14:11:23.189Z,22.70
2019-04-20T14:15:29.150Z,28.10
2019-04-20T14:19:34.887Z,29.70
2019-04-20T14:23:41.140Z,26.70
2019-04-20T14:27:47.095Z,26.40
2019-04-20T14:31:52.675Z,33.20
2019-04-20T14:35:59.057Z,34.40
2019-04-20T14:40:06.155Z,31.80
2019-04-20T14:44:12.155Z,30.20
2019-04-20T14:48:18.566Z,26.70
2019-04-20T14:52:25.783Z,29.40
2019-04-20T14:56:31.740Z,19.00
2019-04-20T15:00:53.066Z,30.00
2019-04-20T15:04:59.061Z,30.70
2019-04-20T15:09:06.901Z,30.00
2019-04-20T15:13:14.890Z,29.00
2019-04-20T15:17:33.258Z,27.70
2019-04-20T15:21:39.725Z,31.40
2019-04-20T15:25:46.457Z,29.90
2019-04-20T15:29:52.144Z,29.60
2019-04-20T15:33:59.029Z,29.40
2019-04-20T15:38:05.108Z,29.20
2019-04-20T15:42:11.568Z,29.50
2019-04-20T15:46:17.357Z,29.00
2019-04-20T15:50:22.912Z,28.70
2019-04-20T15:54:29.614Z,19.50
2019-04-20T15:58:36.459Z,18.90
2019-04-20T16:03:07.391Z,28.80
2019-04-20T16:07:15.065Z,31.80
2019-04-20T16:11:21.520Z,29.60
2019-04-20T16:15:27.563Z,28.80
2019-04-20T16:19:44.942Z,29.10
2019-04-20T16:24:18.974Z,29.10
2019-04-20T16:28:25.671Z,29.50
2019-04-20T16:32:32.363Z,26.90
2019-04-20T16:36:39.142Z,29.60
2019-04-20T16:40:46.212Z,30.40
2019-04-20T16:44:53.467Z,29.80
2019-04-20T16:48:59.425Z,30.30
2019-04-20T16:53:06.709Z,27.80
2019-04-20T16:57:13.105Z,29.40
2019-04-20T17:01:21.364Z,18.10
2019-04-20T17:05:27.630Z,20.30
2019-04-20T17:09:33.807Z,33.00
2019-04-20T17:13:47.476Z,23.40
2019-04-20T17:17:49.547Z,29.40
2019-04-20T17:21:57.107Z,31.80
2019-04-20T17:26:03.994Z,32.20
2019-04-20T17:30:29.432Z,31.90
2019-04-20T17:34:46.814Z,31.50
2019-04-20T17:38:48.500Z,31.50
2019-04-20T17:43:00.011Z,31.60
2019-04-20T17:47:09.661Z,31.50
2019-04-20T17:51:28.716Z,31.60
2019-04-20T17:55:30.211Z,32.30
2019-04-20T17:59:30.415Z,32.30
2019-04-20T18:04:10.812Z,31.90
2019-04-20T18:08:15.470Z,32.00
2019-04-20T18:12:04.787Z,32.10
2019-04-20T18:16:36.837Z,32.30
2019-04-20T18:20:34.706Z,32.30
2019-04-20T18:25:01.861Z,32.40
2019-04-20T18:29:26.228Z,32.80
2019-04-20T18:32:55.720Z,33.00
2019-04-20T18:37:07.651Z,33.00
2019-04-20T18:41:23.077Z,33.20
2019-04-20T18:45:33.767Z,33.20
2019-04-20T18:49:38.498Z,33.40
2019-04-20T18:53:39.233Z,33.40
2019-04-20T18:57:48.934Z,33.50
2019-04-20T19:01:50.906Z,33.50
2019-04-20T19:05:57.934Z,33.80
2019-04-20T19:10:13.888Z,34.10
2019-04-20T19:14:40.893Z,33.90
2019-04-20T19:19:00.621Z,33.80
2019-04-20T19:22:58.071Z,34.30
2019-04-20T19:27:10.203Z,34.30
2019-04-20T19:31:30.853Z,34.30
2019-04-20T19:35:33.651Z,34.50
2019-04-20T19:39:45.993Z,34.50
2019-04-20T19:43:48.399Z,34.50
2019-04-20T19:48:01.931Z,34.80
2019-04-20T19:52:27.235Z,34.80
2019-04-20T19:56:10.725Z,35.10
2019-04-20T20:00:10.139Z,35.40
2019-04-20T20:04:17.579Z,35.60
2019-04-20T20:08:26.009Z,36.50
2019-04-20T20:12:31.563Z,36.00
2019-04-20T20:16:55.993Z,36.10
2019-04-20T20:21:00.852Z,36.30
2019-04-20T20:24:52.565Z,36.40
2019-04-20T20:29:10.942Z,36.60
2019-04-20T20:33:22.114Z,36.80
2019-04-20T20:37:25.414Z,36.80
2019-04-20T20:41:28.975Z,37.00
2019-04-20T20:45:38.417Z,37.10
2019-04-20T20:50:05.878Z,37.40
2019-04-20T20:53:56.512Z,37.40
2019-04-20T20:58:01.777Z,37.60
2019-04-20T21:02:08.873Z,37.80
2019-04-20T21:06:11.663Z,37.90
2019-04-20T21:10:25.657Z,38.00
2019-04-20T21:14:29.247Z,38.10
2019-04-20T21:18:50.346Z,38.20
2019-04-20T21:22:54.807Z,38.30
2019-04-20T21:26:49.581Z,38.40
2019-04-20T21:30:58.741Z,38.30
2019-04-20T21:35:08.507Z,38.60
2019-04-20T21:39:20.696Z,38.80
2019-04-20T21:43:20.703Z,39.40
2019-04-20T21:47:31.492Z,39.20
2019-04-20T21:51:44.553Z,38.40
2019-04-20T21:55:43.723Z,39.50
2019-04-20T21:59:54.262Z,39.60
2019-04-20T22:03:58.733Z,39.60
2019-04-20T22:08:07.912Z,39.80
2019-04-20T22:12:12.036Z,39.90
2019-04-20T22:16:18.956Z,40.10
2019-04-20T22:20:33.474Z,40.20
2019-04-20T22:24:46.525Z,40.30
2019-04-20T22:28:40.341Z,40.60
2019-04-20T22:32:49.947Z,41.20
2019-04-20T22:36:55.858Z,40.80
2019-04-20T22:41:07.732Z,40.80
2019-04-20T22:45:13.346Z,41.20
2019-04-20T22:49:33.417Z,41.30
2019-04-20T22:53:36.392Z,41.50
2019-04-20T22:57:47.332Z,41.50
2019-04-20T23:01:45.741Z,41.60
2019-04-20T23:05:47.113Z,42.50
2019-04-20T23:09:56.442Z,41.80
2019-04-20T23:14:00.521Z,41.80
2019-04-20T23:18:06.376Z,41.80
2019-04-20T23:22:13.990Z,42.00
2019-04-20T23:26:25.524Z,42.60
2019-04-20T23:30:31.443Z,42.00
2019-04-20T23:34:36.055Z,42.20
2019-04-20T23:38:44.329Z,42.20
2019-04-20T23:42:55.823Z,42.40
2019-04-20T23:47:13.741Z,42.30
2019-04-20T23:51:39.058Z,42.50
2019-04-20T23:55:23.889Z,42.60
2019-04-20T23:59:35.371Z,42.80
